Time;durP1;ratioP1;P1;durP2;ratioP2;P2;SDS_P1;SDS_P2;PMS_P1;PMS_P2;Temp;Humidity;BMP_temperature;BMP_pressure;BME280_temperature;BME280_humidity;BME280_pressure;Samples;Min_cycle;Max_cycle;Signal;HPM_P1;HPM_P2
2022/04/15 00:00:06;;;;;;;8.90;4.30;;;;;;;14.39;100.00;96661.69;4980129;28;20196;-86
2022/04/15 00:02:38;;;;;;;4.83;4.07;;;;;;;14.36;100.00;96648.59;4977217;28;20243;-86
2022/04/15 00:05:29;;;;;;;5.97;4.63;;;;;;;14.29;100.00;96655.25;4977819;28;20205;-86
2022/04/15 00:07:57;;;;;;;7.07;4.20;;;;;;;14.25;100.00;96654.91;4983434;28;20283;-86
2022/04/15 00:10:27;;;;;;;7.73;4.40;;;;;;;14.20;100.00;96654.84;4987991;28;20214;-87
2022/04/15 00:12:55;;;;;;;6.67;4.43;;;;;;;14.12;100.00;96654.41;4996655;28;20291;-85
2022/04/15 00:15:22;;;;;;;7.93;4.43;;;;;;;13.91;100.00;96651.31;4981653;28;20228;-86
2022/04/15 00:17:50;;;;;;;6.37;3.97;;;;;;;13.86;100.00;96651.25;4977458;28;20212;-85
2022/04/15 00:20:17;;;;;;;6.40;3.70;;;;;;;13.85;100.00;96646.06;4976798;28;20209;-86
2022/04/15 00:22:44;;;;;;;5.80;3.80;;;;;;;13.87;100.00;96652.84;4985891;28;20196;-85
2022/04/15 00:25:13;;;;;;;5.97;3.93;;;;;;;13.87;100.00;96643.88;4997587;28;20235;-86
2022/04/15 00:27:41;;;;;;;6.37;3.70;;;;;;;13.90;100.00;96643.41;4977301;28;20212;-85
2022/04/15 00:30:10;;;;;;;5.83;3.73;;;;;;;13.84;100.00;96644.41;4977287;28;20309;-86
2022/04/15 00:32:38;;;;;;;6.53;3.67;;;;;;;13.74;100.00;96631.47;4978108;28;20208;-86
2022/04/15 00:35:06;;;;;;;5.17;3.17;;;;;;;13.83;100.00;96638.16;4989124;28;20224;-86
2022/04/15 00:37:34;;;;;;;6.30;3.30;;;;;;;13.88;100.00;96646.38;4980014;28;20228;-87
2022/04/15 00:40:02;;;;;;;5.17;3.03;;;;;;;13.94;100.00;96639.16;4979379;28;20293;-86
2022/04/15 00:42:31;;;;;;;5.37;4.00;;;;;;;13.93;100.00;96648.38;4994637;28;20210;-86
2022/04/15 00:45:00;;;;;;;4.03;3.50;;;;;;;13.89;100.00;96652.63;4998620;28;20232;-87
2022/04/15 00:47:47;;;;;;;6.93;4.33;;;;;;;13.78;100.00;96650.81;4981879;28;20211;-86
2022/04/15 00:50:15;;;;;;;11.80;4.00;;;;;;;13.73;100.00;96656.13;4985554;28;20216;-86
2022/04/15 00:52:45;;;;;;;7.67;4.03;;;;;;;13.64;100.00;96661.94;4975439;28;20296;-86
2022/04/15 00:55:13;;;;;;;7.03;4.20;;;;;;;13.67;100.00;96666.06;4992688;28;20228;-85
2022/04/15 00:57:43;;;;;;;9.90;5.23;;;;;;;13.66;100.00;96679.88;4983951;28;20209;-86
2022/04/15 01:00:12;;;;;;;6.60;4.30;;;;;;;13.54;100.00;96680.72;4975760;28;20208;-85
2022/04/15 01:02:40;;;;;;;6.17;4.80;;;;;;;13.43;100.00;96680.78;4987916;28;20294;-86
2022/04/15 01:05:09;;;;;;;4.73;3.80;;;;;;;13.44;100.00;96683.22;4979575;28;20201;-86
2022/04/15 01:07:38;;;;;;;5.77;3.90;;;;;;;13.41;100.00;96686.44;4986930;28;20197;-86
2022/04/15 01:10:08;;;;;;;8.33;4.23;;;;;;;13.43;100.00;96692.44;4976957;28;20209;-85
2022/04/15 01:12:38;;;;;;;6.03;3.70;;;;;;;13.36;100.00;96680.06;4974828;28;20235;-86
2022/04/15 01:15:09;;;;;;;6.07;3.60;;;;;;;13.37;100.00;96682.53;4990502;28;20231;-86
2022/04/15 01:17:36;;;;;;;5.20;3.93;;;;;;;13.33;100.00;96686.81;4989739;28;20211;-86
2022/04/15 01:20:07;;;;;;;6.67;3.73;;;;;;;13.35;100.00;96679.28;4989628;28;20201;-85
2022/04/15 01:22:38;;;;;;;5.43;4.17;;;;;;;13.34;100.00;96690.34;4978829;28;20208;-86
2022/04/15 01:25:08;;;;;;;9.83;4.50;;;;;;;13.25;100.00;96687.19;4977890;28;20271;-86
2022/04/15 01:27:37;;;;;;;6.47;3.90;;;;;;;13.13;100.00;96684.47;4980352;28;20311;-86
2022/04/15 01:30:05;;;;;;;7.30;4.37;;;;;;;13.19;100.00;96678.09;4992015;28;20215;-85
2022/04/15 01:32:32;;;;;;;7.63;4.20;;;;;;;13.00;100.00;96673.88;4984177;28;20196;-85
2022/04/15 01:34:59;;;;;;;6.47;4.93;;;;;;;12.71;100.00;96677.53;4979653;28;20244;-85
2022/04/15 01:37:28;;;;;;;11.97;4.97;;;;;;;12.65;100.00;96679.31;4979163;28;20197;-85
2022/04/15 01:39:55;;;;;;;8.53;4.83;;;;;;;12.60;100.00;96679.16;4978871;28;20201;-86
2022/04/15 01:42:25;;;;;;;6.90;4.53;;;;;;;12.57;100.00;96676.94;4978566;28;20329;-86
2022/04/15 01:44:52;;;;;;;5.77;4.40;;;;;;;12.63;100.00;96669.75;4990994;28;20252;-86
2022/04/15 01:47:19;;;;;;;7.07;4.37;;;;;;;12.72;100.00;96685.44;4974389;28;20297;-85
2022/04/15 01:49:46;;;;;;;5.27;4.13;;;;;;;12.77;100.00;96674.69;4969954;28;20208;-86
2022/04/15 01:52:13;;;;;;;5.93;4.07;;;;;;;12.88;100.00;96684.72;4982886;28;20216;-86
2022/04/15 01:54:41;;;;;;;5.33;4.30;;;;;;;12.96;100.00;96686.22;4975914;28;20308;-85
2022/04/15 01:57:08;;;;;;;4.43;3.83;;;;;;;12.91;100.00;96677.19;4990751;28;20315;-87
2022/04/15 01:59:37;;;;;;;6.30;4.33;;;;;;;12.81;100.00;96686.72;4981483;28;20208;-85
2022/04/15 02:02:05;;;;;;;7.77;4.33;;;;;;;12.68;100.00;96686.94;4977047;28;20242;-86
2022/04/15 02:04:32;;;;;;;4.87;4.07;;;;;;;12.73;100.00;96684.38;4982611;28;20219;-86
2022/04/15 02:06:59;;;;;;;6.23;4.10;;;;;;;12.66;100.00;96680.13;4972215;28;20223;-86
2022/04/15 02:09:26;;;;;;;9.57;4.17;;;;;;;12.70;100.00;96681.28;4974685;28;20227;-85
2022/04/15 02:11:54;;;;;;;6.30;4.20;;;;;;;12.67;100.00;96685.31;4980488;28;20240;-86
2022/04/15 02:14:21;;;;;;;8.93;3.90;;;;;;;12.64;100.00;96683.06;4974268;28;20200;-86
2022/04/15 02:16:52;;;;;;;5.97;3.83;;;;;;;12.67;100.00;96677.19;4976718;28;20228;-85
2022/04/15 02:19:19;;;;;;;5.97;3.97;;;;;;;12.67;100.00;96679.06;4980940;28;20213;-86
2022/04/15 02:21:46;;;;;;;9.47;4.40;;;;;;;12.62;100.00;96681.63;4976057;28;20208;-86
2022/04/15 02:24:14;;;;;;;7.27;4.27;;;;;;;12.64;100.00;96677.66;4979463;28;20297;-86
2022/04/15 02:26:41;;;;;;;5.40;3.40;;;;;;;12.57;100.00;96671.53;4980764;28;20208;-86
2022/04/15 02:29:08;;;;;;;5.37;3.80;;;;;;;12.61;100.00;96677.28;4974822;28;20302;-86
2022/04/15 02:31:35;;;;;;;4.73;3.53;;;;;;;12.61;100.00;96678.09;4977029;28;20228;-86
2022/04/15 02:34:04;;;;;;;7.43;3.60;;;;;;;12.66;100.00;96682.84;4977151;28;20196;-85
2022/04/15 02:36:31;;;;;;;8.60;4.13;;;;;;;12.69;100.00;96685.06;4977886;28;20223;-85
2022/04/15 02:38:58;;;;;;;5.63;3.97;;;;;;;12.71;100.00;96689.19;4982624;28;20226;-86
2022/04/15 02:41:25;;;;;;;6.53;4.03;;;;;;;12.65;100.00;96684.72;4975528;28;20213;-86
2022/04/15 02:43:54;;;;;;;5.97;4.07;;;;;;;12.71;100.00;96699.19;4998298;28;20275;-85
2022/04/15 02:46:21;;;;;;;7.00;4.30;;;;;;;12.57;100.00;96693.19;4982043;28;20212;-86
2022/04/15 02:48:48;;;;;;;6.77;4.20;;;;;;;12.44;100.00;96696.09;4973117;28;20263;-85
2022/04/15 02:51:17;;;;;;;5.57;4.00;;;;;;;12.39;100.00;96693.28;4980274;28;20290;-86
2022/04/15 02:53:44;;;;;;;4.70;3.57;;;;;;;12.36;100.00;96696.44;4974621;28;20255;-85
2022/04/15 02:56:11;;;;;;;7.77;4.37;;;;;;;12.41;100.00;96699.31;4980961;28;20255;-85
2022/04/15 02:58:38;;;;;;;5.87;3.90;;;;;;;12.43;100.00;96689.88;4988903;28;20295;-86
2022/04/15 03:01:06;;;;;;;5.67;4.23;;;;;;;12.48;100.00;96694.59;4978374;28;20211;-86
2022/04/15 03:03:34;;;;;;;5.00;3.80;;;;;;;12.56;100.00;96696.97;4976608;28;20258;-86
2022/04/15 03:06:02;;;;;;;4.50;3.40;;;;;;;12.58;100.00;96705.69;4980823;28;20235;-86
2022/04/15 03:08:31;;;;;;;4.73;3.97;;;;;;;12.60;100.00;96708.13;4974429;28;20200;-86
2022/04/15 03:11:00;;;;;;;4.93;3.80;;;;;;;12.55;100.00;96706.13;4976800;28;20212;-85
2022/04/15 03:13:27;;;;;;;6.70;4.00;;;;;;;12.51;100.00;96713.06;4984733;28;20272;-86
2022/04/15 03:15:54;;;;;;;6.07;3.87;;;;;;;12.47;100.00;96712.72;4976991;28;20276;-86
2022/04/15 03:18:22;;;;;;;5.63;3.80;;;;;;;12.39;100.00;96706.81;4972666;28;20304;-86
2022/04/15 03:20:50;;;;;;;9.40;4.00;;;;;;;12.38;100.00;96708.72;4976823;28;20262;-86
2022/04/15 03:23:19;;;;;;;5.83;3.67;;;;;;;12.39;100.00;96714.94;4976024;28;20212;-87
2022/04/15 03:25:47;;;;;;;8.17;4.30;;;;;;;12.45;100.00;96719.44;4973980;28;20208;-87
2022/04/15 03:28:15;;;;;;;4.50;3.80;;;;;;;12.45;100.00;96714.84;4983435;28;20244;-87
2022/04/15 03:30:42;;;;;;;4.63;3.57;;;;;;;12.51;100.00;96726.59;4984492;28;20220;-86
2022/04/15 03:33:10;;;;;;;6.17;4.03;;;;;;;12.54;100.00;96722.63;4980662;28;20212;-87
2022/04/15 03:35:37;;;;;;;5.40;3.60;;;;;;;12.50;100.00;96725.00;4982330;28;20215;-86
2022/04/15 03:38:05;;;;;;;5.53;3.60;;;;;;;12.51;100.00;96722.03;4985299;28;20494;-86
2022/04/15 03:40:32;;;;;;;5.77;4.70;;;;;;;12.53;100.00;96724.50;4993610;28;20281;-87
2022/04/15 03:43:00;;;;;;;5.87;4.03;;;;;;;12.44;100.00;96725.91;4981448;28;20287;-86
2022/04/15 03:45:28;;;;;;;5.30;3.87;;;;;;;12.37;100.00;96717.06;4979823;28;20275;-86
2022/04/15 03:47:55;;;;;;;4.80;3.97;;;;;;;12.37;100.00;96730.59;4983771;28;20237;-86
2022/04/15 03:50:23;;;;;;;7.23;3.80;;;;;;;12.35;100.00;96728.13;4985773;28;20215;-86
2022/04/15 03:52:50;;;;;;;7.87;4.80;;;;;;;12.15;100.00;96726.78;4982910;28;20259;-86
2022/04/15 03:55:19;;;;;;;7.30;4.50;;;;;;;11.87;100.00;96730.91;4986494;28;20208;-86
2022/04/15 03:57:47;;;;;;;6.50;4.23;;;;;;;11.68;100.00;96721.97;4977152;28;20233;-86
2022/04/15 04:00:17;;;;;;;5.20;4.47;;;;;;;11.64;100.00;96725.38;4986566;28;20219;-86
2022/04/15 04:02:45;;;;;;;8.93;5.20;;;;;;;11.56;100.00;96722.97;4983709;28;20276;-86
2022/04/15 04:05:13;;;;;;;10.80;4.67;;;;;;;11.52;100.00;96732.59;4981619;28;20212;-86
2022/04/15 04:07:40;;;;;;;11.97;5.03;;;;;;;11.37;100.00;96731.09;4995317;28;20209;-85
2022/04/15 04:10:08;;;;;;;7.37;5.40;;;;;;;11.19;100.00;96731.09;4988725;28;20206;-86
2022/04/15 04:12:35;;;;;;;12.23;8.20;;;;;;;11.14;100.00;96730.97;4984481;28;20268;-85
2022/04/15 04:15:03;;;;;;;9.47;5.97;;;;;;;11.18;100.00;96731.31;4972894;28;20214;-85
2022/04/15 04:17:32;;;;;;;9.47;7.80;;;;;;;11.40;100.00;96740.63;4979714;28;20232;-86
2022/04/15 04:19:59;;;;;;;14.73;12.20;;;;;;;11.51;100.00;96739.88;4990989;28;20203;-85
2022/04/15 04:22:28;;;;;;;20.90;15.33;;;;;;;11.58;100.00;96742.50;4979378;28;20213;-85
2022/04/15 04:24:55;;;;;;;8.33;5.17;;;;;;;11.65;100.00;96738.66;4981310;28;20235;-85
2022/04/15 04:27:23;;;;;;;14.30;12.10;;;;;;;11.72;100.00;96731.28;4981336;28;20208;-85
2022/04/15 04:29:50;;;;;;;10.37;9.07;;;;;;;11.85;100.00;96743.84;4981207;28;20212;-86
2022/04/15 04:32:18;;;;;;;15.03;11.13;;;;;;;11.83;100.00;96729.72;4978404;28;20228;-86
2022/04/15 04:34:48;;;;;;;8.03;4.70;;;;;;;11.87;100.00;96735.50;4982037;28;20205;-86
2022/04/15 04:37:15;;;;;;;5.23;4.03;;;;;;;11.93;100.00;96738.09;4993089;28;20226;-86
2022/04/15 04:39:42;;;;;;;5.83;3.67;;;;;;;12.07;100.00;96745.00;4978083;28;20212;-87
2022/04/15 04:42:10;;;;;;;8.40;3.77;;;;;;;12.19;100.00;96733.38;4993863;28;20231;-86
2022/04/15 04:44:40;;;;;;;10.37;4.17;;;;;;;12.21;100.00;96736.69;4984062;28;20378;-86
2022/04/15 04:47:09;;;;;;;4.93;3.20;;;;;;;12.29;100.00;96739.88;4977244;28;20216;-86
2022/04/15 04:49:36;;;;;;;5.53;3.83;;;;;;;12.31;100.00;96732.38;4978701;28;20244;-87
2022/04/15 04:52:06;;;;;;;8.83;3.90;;;;;;;12.32;100.00;96727.78;4976989;28;20212;-86
2022/04/15 04:54:33;;;;;;;8.50;4.20;;;;;;;12.37;100.00;96725.19;4987744;28;20223;-87
2022/04/15 04:57:01;;;;;;;9.67;6.00;;;;;;;12.36;100.00;96731.66;4981571;28;20235;-86
2022/04/15 04:59:29;;;;;;;5.53;4.90;;;;;;;12.37;100.00;96738.72;4983986;28;20207;-85
2022/04/15 05:01:56;;;;;;;6.57;4.20;;;;;;;12.30;100.00;96738.00;4974030;28;20224;-86
2022/04/15 05:04:24;;;;;;;6.83;3.80;;;;;;;12.34;100.00;96731.06;4987541;28;20299;-86
2022/04/15 05:06:51;;;;;;;7.60;4.20;;;;;;;12.36;100.00;96737.06;4987257;28;20216;-86
2022/04/15 05:09:20;;;;;;;6.73;4.20;;;;;;;12.43;100.00;96732.38;4994693;28;20208;-86
2022/04/15 05:11:48;;;;;;;6.87;4.23;;;;;;;12.47;100.00;96739.81;4977010;28;20224;-86
2022/04/15 05:14:17;;;;;;;6.40;3.90;;;;;;;12.52;100.00;96733.69;4981202;28;20279;-86
2022/04/15 05:16:44;;;;;;;7.20;3.97;;;;;;;12.55;100.00;96738.66;4979182;28;20220;-85
2022/04/15 05:19:11;;;;;;;8.43;4.40;;;;;;;12.57;100.00;96731.13;4978722;28;20223;-87
2022/04/15 05:21:38;;;;;;;6.23;4.10;;;;;;;12.65;100.00;96736.19;4984705;28;20224;-87
2022/04/15 05:24:07;;;;;;;8.07;5.73;;;;;;;12.65;99.64;96732.66;4980609;28;20219;-85
2022/04/15 05:26:36;;;;;;;6.97;4.30;;;;;;;12.72;100.00;96738.78;4990957;28;20299;-86
2022/04/15 05:29:04;;;;;;;6.80;4.53;;;;;;;12.71;100.00;96727.13;4980819;28;20244;-86
2022/04/15 05:31:31;;;;;;;5.03;3.97;;;;;;;12.82;99.54;96737.16;4976293;28;20209;-86
2022/04/15 05:33:58;;;;;;;6.20;3.63;;;;;;;12.85;99.15;96733.94;4980514;28;20228;-86
2022/04/15 05:36:26;;;;;;;4.80;3.53;;;;;;;12.94;98.92;96739.03;4980815;28;20271;-86
2022/04/15 05:38:53;;;;;;;4.30;3.60;;;;;;;12.99;98.33;96745.41;5006198;28;20196;-87
2022/04/15 05:41:20;;;;;;;6.07;3.73;;;;;;;13.01;96.83;96745.19;4977966;28;20232;-86
2022/04/15 05:43:48;;;;;;;8.60;4.07;;;;;;;13.04;96.32;96741.97;4982492;28;20297;-86
2022/04/15 05:46:16;;;;;;;3.97;3.20;;;;;;;13.08;97.12;96743.16;4979885;28;20218;-87
2022/04/15 05:48:43;;;;;;;7.07;3.97;;;;;;;13.19;96.43;96747.78;4982821;28;20289;-86
2022/04/15 05:51:10;;;;;;;6.43;3.53;;;;;;;13.25;94.21;96755.81;4983564;28;20216;-86
2022/04/15 05:53:37;;;;;;;5.53;3.43;;;;;;;13.32;92.88;96746.72;4985841;28;20228;-86
2022/04/15 05:56:05;;;;;;;5.80;3.40;;;;;;;13.39;91.26;96753.66;4986478;28;20213;-87
2022/04/15 05:58:32;;;;;;;5.97;3.00;;;;;;;13.46;88.68;96740.78;4976631;28;20204;-86
2022/04/15 06:01:01;;;;;;;5.47;3.37;;;;;;;13.57;87.86;96758.09;4979121;28;20248;-87
2022/04/15 06:03:32;;;;;;;5.40;4.03;;;;;;;13.59;88.97;96756.81;4981391;28;20232;-86
2022/04/15 06:06:00;;;;;;;5.20;3.70;;;;;;;13.68;91.27;96762.69;4978817;28;20201;-87
2022/04/15 06:08:27;;;;;;;5.33;3.70;;;;;;;13.75;91.60;96770.69;4970716;28;20207;-86
2022/04/15 06:10:55;;;;;;;6.90;3.77;;;;;;;13.79;92.71;96769.13;4974878;28;20299;-86
2022/04/15 06:13:25;;;;;;;7.63;4.00;;;;;;;13.78;95.76;96770.22;4985250;28;20206;-86
2022/04/15 06:15:53;;;;;;;5.20;3.77;;;;;;;13.73;94.99;96770.09;4989972;28;20236;-87
2022/04/15 06:18:21;;;;;;;6.63;4.20;;;;;;;13.61;97.13;96761.97;4982204;28;20329;-86
2022/04/15 06:20:49;;;;;;;4.33;3.73;;;;;;;13.64;98.18;96765.06;4970804;28;20215;-86
2022/04/15 06:23:16;;;;;;;6.60;4.00;;;;;;;13.63;100.00;96771.53;4989466;28;20236;-86
2022/04/15 06:25:44;;;;;;;5.27;4.10;;;;;;;13.56;100.00;96768.13;4977635;28;20224;-86
2022/04/15 06:28:11;;;;;;;5.73;4.03;;;;;;;13.56;100.00;96776.28;4979560;28;20247;-87
2022/04/15 06:30:39;;;;;;;8.13;4.27;;;;;;;13.57;100.00;96777.94;4981138;28;20212;-86
2022/04/15 06:33:08;;;;;;;7.10;4.53;;;;;;;13.55;100.00;96763.78;4971390;28;20292;-86
2022/04/15 06:35:39;;;;;;;11.63;4.70;;;;;;;13.60;100.00;96769.31;4968668;28;20308;-87
2022/04/15 06:38:07;;;;;;;5.60;4.43;;;;;;;13.56;100.00;96768.13;4975431;28;20231;-86
2022/04/15 06:40:35;;;;;;;8.97;4.23;;;;;;;13.61;100.00;96776.38;4977947;28;20201;-86
2022/04/15 06:43:02;;;;;;;6.60;4.30;;;;;;;13.64;100.00;96770.47;4971018;28;20219;-86
2022/04/15 06:45:29;;;;;;;7.93;4.57;;;;;;;13.67;100.00;96768.34;4973778;28;20212;-85
2022/04/15 06:47:56;;;;;;;5.53;4.57;;;;;;;13.74;100.00;96769.03;4974793;28;20247;-86
2022/04/15 06:50:24;;;;;;;6.20;4.50;;;;;;;13.74;100.00;96764.44;4968266;28;20196;-85
2022/04/15 06:52:52;;;;;;;5.67;4.53;;;;;;;13.74;100.00;96760.91;4973865;28;20205;-86
2022/04/15 06:55:20;;;;;;;8.67;4.87;;;;;;;13.70;100.00;96757.00;4991063;28;20219;-85
2022/04/15 06:57:47;;;;;;;6.60;4.50;;;;;;;13.72;100.00;96753.00;4975097;28;20212;-86
2022/04/15 07:00:14;;;;;;;5.20;4.47;;;;;;;13.78;100.00;96759.38;4977399;28;20560;-86
2022/04/15 07:02:42;;;;;;;6.07;4.40;;;;;;;13.71;100.00;96755.94;4971981;28;20200;-86
2022/04/15 07:05:10;;;;;;;5.07;4.40;;;;;;;13.67;100.00;96758.34;4971748;28;20197;-86
2022/04/15 07:07:37;;;;;;;8.07;4.63;;;;;;;13.70;100.00;96774.13;4982311;28;20206;-85
2022/04/15 07:10:08;;;;;;;5.27;4.63;;;;;;;13.70;100.00;96757.00;4977674;28;20236;-86
2022/04/15 07:12:36;;;;;;;7.70;4.77;;;;;;;13.74;100.00;96759.00;4973947;28;20267;-85
2022/04/15 07:15:03;;;;;;;5.47;4.53;;;;;;;13.72;100.00;96758.41;4974036;28;20249;-86
2022/04/15 07:17:30;;;;;;;7.13;4.63;;;;;;;13.81;100.00;96767.84;4983887;28;20331;-87
2022/04/15 07:19:57;;;;;;;9.43;5.00;;;;;;;13.82;100.00;96761.34;4968645;28;20205;-86
2022/04/15 07:22:25;;;;;;;6.73;4.30;;;;;;;13.85;100.00;96765.47;4978030;28;20215;-86
2022/04/15 07:24:52;;;;;;;9.27;5.30;;;;;;;13.88;100.00;96764.97;4967833;28;20205;-86
2022/04/15 07:27:21;;;;;;;7.97;5.03;;;;;;;13.94;100.00;96770.28;4992359;28;20200;-86
2022/04/15 07:29:48;;;;;;;8.70;5.50;;;;;;;14.00;100.00;96763.06;4976619;28;20206;-87
2022/04/15 07:32:21;;;;;;;5.67;4.77;;;;;;;14.00;100.00;96761.19;4977789;28;20212;-85
2022/04/15 07:34:48;;;;;;;6.87;4.50;;;;;;;14.11;100.00;96759.50;4981699;28;20262;-86
2022/04/15 07:37:15;;;;;;;6.70;4.47;;;;;;;14.17;100.00;96757.69;4980988;28;20234;-86
2022/04/15 07:39:42;;;;;;;8.07;4.57;;;;;;;14.12;100.00;96755.69;4976453;28;20291;-86
2022/04/15 07:42:11;;;;;;;9.60;5.13;;;;;;;14.13;99.96;96754.63;4981283;28;20207;-86
2022/04/15 07:44:40;;;;;;;7.90;4.87;;;;;;;14.19;100.00;96753.66;4974604;28;20208;-86
2022/04/15 07:47:09;;;;;;;7.43;4.93;;;;;;;14.24;100.00;96745.59;4967319;28;20215;-86
2022/04/15 07:49:36;;;;;;;7.97;4.40;;;;;;;14.31;100.00;96757.13;4975547;28;20225;-86
2022/04/15 07:52:06;;;;;;;9.80;4.97;;;;;;;14.27;100.00;96750.56;4972828;28;20236;-85
2022/04/15 07:54:33;;;;;;;6.83;4.67;;;;;;;14.48;100.00;96753.66;4975127;28;20212;-85
2022/04/15 07:57:00;;;;;;;6.27;4.57;;;;;;;14.80;99.74;96746.59;4981173;28;20220;-86
2022/04/15 07:59:27;;;;;;;9.00;4.60;;;;;;;15.23;95.53;96753.22;4973201;28;20217;-87
2022/04/15 08:01:58;;;;;;;9.93;7.03;;;;;;;15.60;94.25;96751.63;4974769;28;20291;-86
2022/04/15 08:04:25;;;;;;;8.30;5.80;;;;;;;15.96;90.00;96747.47;4989709;28;20301;-86
2022/04/15 08:06:52;;;;;;;7.77;5.07;;;;;;;16.26;88.56;96738.78;4974863;28;20319;-85
2022/04/15 08:09:20;;;;;;;7.03;4.83;;;;;;;16.66;84.58;96752.03;4971437;28;20216;-86
2022/04/15 08:11:47;;;;;;;7.23;4.70;;;;;;;16.77;82.29;96753.75;4974151;28;20441;-86
2022/04/15 08:14:21;;;;;;;8.77;4.80;;;;;;;16.93;83.47;96747.34;4990618;28;20220;-92
2022/04/15 08:17:18;;;;;;;5.70;4.53;;;;;;;17.22;81.60;96752.47;4976290;28;20236;-93
2022/04/15 08:19:46;;;;;;;8.00;4.40;;;;;;;17.34;80.59;96751.22;4989944;28;20297;-93
2022/04/15 08:22:16;;;;;;;5.97;4.13;;;;;;;17.19;82.58;96758.44;4974732;28;20232;-93
2022/04/15 08:24:46;;;;;;;4.83;4.07;;;;;;;16.83;83.83;96750.00;4985857;28;20233;-93
2022/04/15 08:27:16;;;;;;;4.63;3.67;;;;;;;16.78;83.72;96755.41;4974675;28;20239;-94
2022/04/15 08:29:57;;;;;;;6.60;3.90;;;;;;;16.89;82.00;96759.88;4973565;28;20216;-92
2022/04/15 08:32:33;;;;;;;7.00;4.33;;;;;;;16.96;80.80;96760.47;4981244;28;20216;-92
2022/04/15 08:35:06;;;;;;;7.33;3.90;;;;;;;16.90;78.83;96749.78;4978652;28;20258;-93
2022/04/15 08:37:45;;;;;;;6.60;3.77;;;;;;;17.01;79.55;96759.72;4978781;28;20224;-93
2022/04/15 08:40:15;;;;;;;9.40;3.77;;;;;;;16.99;77.06;96756.41;4994639;28;20303;-91
2022/04/15 08:43:07;;;;;;;6.50;3.60;;;;;;;16.95;77.85;96764.28;4987454;28;20250;-90
2022/04/15 08:45:41;;;;;;;4.60;3.77;;;;;;;17.01;76.98;96765.16;4995260;28;20208;-86
2022/04/15 08:48:12;;;;;;;5.53;3.40;;;;;;;17.17;76.40;96761.47;4991849;28;20259;-90
2022/04/15 08:50:42;;;;;;;7.23;3.83;;;;;;;17.50;75.80;96764.94;4985127;28;20220;-91
2022/04/15 08:53:10;;;;;;;5.30;3.50;;;;;;;17.75;73.79;96767.84;4981699;28;20208;-92
2022/04/15 08:55:40;;;;;;;7.20;4.00;;;;;;;17.87;73.91;96760.25;4990281;28;20273;-90
2022/04/15 08:58:10;;;;;;;5.37;3.63;;;;;;;18.13;73.95;96767.47;4993835;28;20263;-90
2022/04/15 09:00:43;;;;;;;6.67;4.00;;;;;;;18.25;72.88;96763.69;4980923;28;20216;-92
2022/04/15 09:03:15;;;;;;;5.83;3.87;;;;;;;18.03;74.56;96767.41;4973609;28;20244;-90
2022/04/15 09:05:42;;;;;;;6.90;3.90;;;;;;;17.69;76.85;96764.25;4980383;28;20251;-92
2022/04/15 09:08:11;;;;;;;5.50;3.90;;;;;;;17.54;78.37;96766.03;4983551;28;20228;-91
2022/04/15 09:10:42;;;;;;;8.63;4.20;;;;;;;17.34;77.98;96764.03;4974096;28;20248;-92
2022/04/15 09:13:20;;;;;;;6.67;4.27;;;;;;;17.22;80.14;96764.22;4977664;28;20306;-90
2022/04/15 09:15:48;;;;;;;7.53;4.10;;;;;;;17.27;79.36;96755.22;4992755;28;20254;-91
2022/04/15 09:18:30;;;;;;;5.53;4.30;;;;;;;17.25;78.76;96750.06;4991849;28;20223;-90
2022/04/15 09:21:19;;;;;;;5.77;3.90;;;;;;;17.52;77.37;96760.06;4973165;28;20209;-90
2022/04/15 09:23:48;;;;;;;5.00;3.80;;;;;;;17.74;76.06;96758.00;4980715;28;20304;-91
2022/04/15 09:26:15;;;;;;;5.93;4.87;;;;;;;17.92;76.33;96762.19;4977087;28;20318;-90
2022/04/15 09:28:42;;;;;;;5.07;4.07;;;;;;;18.01;75.90;96758.69;4982952;28;20212;-91
2022/04/15 09:31:14;;;;;;;5.17;4.10;;;;;;;18.02;76.40;96752.13;4990914;28;20220;-90
2022/04/15 09:34:01;;;;;;;7.47;3.97;;;;;;;17.97;77.30;96760.28;4995046;28;20213;-90
2022/04/15 09:36:31;;;;;;;5.00;3.83;;;;;;;17.74;76.85;96761.56;4978205;28;20212;-89
2022/04/15 09:39:00;;;;;;;7.33;4.03;;;;;;;17.60;76.97;96763.09;4980907;28;20229;-91
2022/04/15 09:41:29;;;;;;;6.17;4.33;;;;;;;17.56;77.84;96772.06;4990073;28;20219;-92
2022/04/15 09:43:58;;;;;;;6.13;3.80;;;;;;;17.54;78.83;96757.84;4980996;28;20313;-92
2022/04/15 09:46:27;;;;;;;10.00;3.80;;;;;;;17.63;78.98;96764.50;4977770;28;20212;-91
2022/04/15 09:49:02;;;;;;;6.73;4.03;;;;;;;17.74;78.04;96761.56;4981434;28;20247;-92
2022/04/15 09:51:33;;;;;;;4.80;4.20;;;;;;;17.96;76.29;96755.91;4974201;28;20214;-91
2022/04/15 09:54:05;;;;;;;6.63;4.53;;;;;;;18.09;74.04;96758.16;4973907;28;20212;-91
2022/04/15 09:56:34;;;;;;;6.63;4.10;;;;;;;18.03;75.85;96744.75;4972682;28;20200;-91
2022/04/15 09:59:08;;;;;;;6.93;4.30;;;;;;;18.20;74.71;96750.00;4989272;28;20220;-91
2022/04/15 10:01:41;;;;;;;5.83;3.93;;;;;;;18.36;76.51;96740.75;4988298;28;20205;-91
2022/04/15 10:04:11;;;;;;;5.90;4.40;;;;;;;18.43;74.86;96747.59;4974937;28;20209;-91
2022/04/15 10:06:40;;;;;;;6.57;4.53;;;;;;;18.57;75.94;96736.97;4985962;28;20250;-90
2022/04/15 10:09:10;;;;;;;6.90;4.77;;;;;;;18.94;76.83;96735.91;4979529;28;20201;-92
2022/04/15 10:11:40;;;;;;;7.53;4.73;;;;;;;19.11;74.77;96733.72;4993359;28;20219;-87
2022/04/15 10:14:09;;;;;;;8.47;5.30;;;;;;;19.15;73.18;96738.34;4974590;28;20216;-86
2022/04/15 10:16:38;;;;;;;5.93;4.70;;;;;;;19.08;73.75;96728.78;4970294;28;20260;-88
2022/04/15 10:19:06;;;;;;;8.27;5.63;;;;;;;19.17;74.25;96724.41;4997473;28;20228;-89
2022/04/15 10:21:37;;;;;;;7.63;5.23;;;;;;;19.31;72.37;96733.69;4988906;28;20213;-86
2022/04/15 10:24:08;;;;;;;6.80;5.47;;;;;;;19.27;72.06;96718.91;4986070;28;20219;-82
2022/04/15 10:26:36;;;;;;;10.77;5.10;;;;;;;19.32;72.76;96727.09;4979131;28;20239;-84
2022/04/15 10:29:05;;;;;;;5.80;5.00;;;;;;;19.26;71.69;96723.56;4987926;28;20218;-79
2022/04/15 10:31:41;;;;;;;7.23;5.30;;;;;;;19.38;72.29;96736.16;4977324;28;20227;-79
2022/04/15 10:34:13;;;;;;;6.43;5.40;;;;;;;19.55;72.90;96732.03;4983929;28;20215;-80
2022/04/15 10:36:46;;;;;;;8.33;5.77;;;;;;;19.62;71.42;96732.56;4974883;28;20215;-80
2022/04/15 10:39:19;;;;;;;10.55;6.32;;;;;;;19.60;72.16;96725.72;4980534;28;20239;-80
2022/04/15 10:42:01;;;;;;;8.77;6.15;;;;;;;19.42;73.29;96729.84;4988795;28;20244;-79
2022/04/15 10:44:31;;;;;;;10.80;6.07;;;;;;;19.37;73.71;96727.13;4984633;28;20235;-80
2022/04/15 10:47:00;;;;;;;13.25;7.78;;;;;;;19.28;76.03;96732.34;4990218;28;20295;-80
2022/04/15 10:49:30;;;;;;;9.77;6.67;;;;;;;19.52;75.79;96729.03;4974543;28;20236;-80
2022/04/15 10:52:04;;;;;;;10.17;7.00;;;;;;;19.49;74.17;96722.19;4978600;28;20243;-81
2022/04/15 10:54:32;;;;;;;9.65;6.45;;;;;;;19.44;75.90;96715.88;4984499;28;20212;-83
2022/04/15 10:57:02;;;;;;;10.57;6.63;;;;;;;19.42;74.96;96726.28;4976241;28;20302;-80
2022/04/15 11:02:18;;;;;;;12.17;7.50;;;;;;;19.62;73.96;96723.53;4972976;28;20239;-80
2022/04/15 11:04:49;;;;;;;10.10;7.67;;;;;;;19.55;74.12;96718.34;4971063;28;20224;-80
2022/04/15 11:07:27;;;;;;;10.43;8.03;;;;;;;19.67;75.52;96722.69;4970631;28;20211;-81
2022/04/15 11:09:55;;;;;;;10.13;7.87;;;;;;;19.87;73.63;96722.63;4979260;28;20200;-82
2022/04/15 11:12:43;;;;;;;8.13;7.05;;;;;;;19.69;73.15;96720.50;4979307;28;20238;-80
2022/04/15 11:15:10;;;;;;;12.20;8.20;;;;;;;19.51;74.38;96719.16;4985673;28;20223;-80
2022/04/15 11:17:39;;;;;;;10.20;7.90;;;;;;;19.48;76.56;96723.28;4980464;28;20204;-81
2022/04/15 11:20:08;;;;;;;10.93;8.17;;;;;;;19.48;75.59;96717.00;4979093;28;20227;-80
2022/04/15 11:22:40;;;;;;;12.80;9.00;;;;;;;19.36;75.50;96713.69;4974395;28;20232;-81
2022/04/15 11:25:10;;;;;;;10.70;8.37;;;;;;;19.67;76.50;96707.06;4980901;28;20207;-81
2022/04/15 11:27:39;;;;;;;12.43;8.68;;;;;;;19.85;74.50;96703.72;4978538;28;20224;-81
2022/04/15 11:30:12;;;;;;;12.82;8.75;;;;;;;19.88;74.46;96703.16;4987252;28;20541;-80
2022/04/15 11:32:47;;;;;;;13.33;9.30;;;;;;;19.75;74.91;96703.75;4973374;28;20232;-81
2022/04/15 11:35:30;;;;;;;12.85;9.75;;;;;;;19.53;76.50;96698.63;4978184;28;20212;-81
2022/04/15 11:38:06;;;;;;;12.20;9.60;;;;;;;19.52;75.20;96704.38;4982490;28;20307;-81